Time;durP1;ratioP1;P1;durP2;ratioP2;P2;SDS_P1;SDS_P2;PMS_P1;PMS_P2;Temp;Humidity;BMP_temperature;BMP_pressure;BME280_temperature;BME280_humidity;BME280_pressure;Samples;Min_cycle;Max_cycle;Signal;HPM_P1;HPM_P2
2024/01/02 00:01:13;;;;;;;1.08;0.40;;;11.20;99.90;;;;;;5033249;28;20045;-60
2024/01/02 00:03:40;;;;;;;1.17;0.30;;;11.20;99.90;;;;;;5033114;28;20042;-60
2024/01/02 00:06:07;;;;;;;1.27;0.32;;;11.20;99.90;;;;;;5033363;28;20601;-60
2024/01/02 00:08:34;;;;;;;1.30;0.30;;;11.20;99.90;;;;;;5032078;28;20136;-60
2024/01/02 00:11:01;;;;;;;1.48;0.30;;;11.20;99.90;;;;;;5033341;28;20042;-60
2024/01/02 00:13:28;;;;;;;1.05;0.30;;;11.20;99.90;;;;;;5033121;28;20041;-60
2024/01/02 00:15:54;;;;;;;1.20;0.40;;;11.20;99.90;;;;;;5036267;28;20057;-60
2024/01/02 00:18:21;;;;;;;1.33;0.55;;;11.30;99.90;;;;;;5037374;28;20453;-60
2024/01/02 00:20:48;;;;;;;2.22;0.45;;;11.30;99.90;;;;;;5036993;28;20103;-60
2024/01/02 00:23:16;;;;;;;0.80;0.30;;;11.30;99.90;;;;;;5035908;28;20204;-60
2024/01/02 00:25:43;;;;;;;1.85;0.40;;;11.30;99.90;;;;;;5037104;28;20121;-60
2024/01/02 00:28:10;;;;;;;2.17;0.43;;;11.40;99.90;;;;;;5037028;28;20049;-60
2024/01/02 00:30:37;;;;;;;1.42;0.45;;;11.40;99.90;;;;;;5037147;28;20037;-61
2024/01/02 00:33:04;;;;;;;3.95;0.60;;;11.40;99.90;;;;;;5036924;28;20441;-60
2024/01/02 00:35:31;;;;;;;2.45;0.40;;;11.40;99.90;;;;;;5037269;28;20092;-61
2024/01/02 00:37:58;;;;;;;2.58;0.40;;;11.50;99.90;;;;;;5037076;28;20045;-61
2024/01/02 00:40:25;;;;;;;1.95;0.30;;;11.50;99.90;;;;;;5036872;28;20129;-60
2024/01/02 00:42:52;;;;;;;1.92;0.50;;;11.50;99.90;;;;;;5035403;28;20041;-60
2024/01/02 00:45:18;;;;;;;0.70;0.30;;;11.50;99.90;;;;;;5036785;28;20053;-60
2024/01/02 00:47:45;;;;;;;1.15;0.40;;;11.50;99.90;;;;;;5035434;28;20111;-67
2024/01/02 00:50:13;;;;;;;1.58;0.40;;;11.50;99.90;;;;;;5036700;28;20195;-67
2024/01/02 00:52:40;;;;;;;1.88;0.45;;;11.60;99.90;;;;;;5035741;28;20041;-67
2024/01/02 00:55:06;;;;;;;3.35;0.50;;;11.60;99.90;;;;;;5036328;28;20049;-67
2024/01/02 00:57:33;;;;;;;2.97;0.55;;;11.60;99.90;;;;;;5036710;28;20045;-61
2024/01/02 01:00:01;;;;;;;5.13;0.70;;;11.60;99.90;;;;;;5036668;28;20061;-61
2024/01/02 01:02:28;;;;;;;2.53;0.50;;;11.70;99.90;;;;;;5034975;28;20065;-68
2024/01/02 01:04:55;;;;;;;1.42;0.40;;;11.70;99.90;;;;;;5036146;28;20044;-68
2024/01/02 01:07:22;;;;;;;1.52;0.40;;;11.70;99.90;;;;;;5034842;28;20052;-67
2024/01/02 01:09:49;;;;;;;2.17;0.40;;;11.70;99.90;;;;;;5036343;28;20037;-67
2024/01/02 01:12:15;;;;;;;1.50;0.28;;;11.70;99.90;;;;;;5036634;28;20049;-67
2024/01/02 01:14:42;;;;;;;2.88;0.40;;;11.70;99.90;;;;;;5034867;28;20050;-67
2024/01/02 01:17:09;;;;;;;2.63;0.50;;;11.70;99.90;;;;;;5035864;28;20049;-67
2024/01/02 01:19:36;;;;;;;3.20;0.60;;;11.70;99.90;;;;;;5036213;28;20482;-68
2024/01/02 01:22:03;;;;;;;0.93;0.35;;;11.70;99.90;;;;;;5036106;28;20124;-68
2024/01/02 01:24:30;;;;;;;1.63;0.30;;;11.70;99.90;;;;;;5035979;28;20041;-67
2024/01/02 01:26:57;;;;;;;3.95;0.43;;;11.70;99.90;;;;;;5034209;28;20092;-68
2024/01/02 01:29:24;;;;;;;2.25;0.60;;;11.80;99.90;;;;;;5035992;28;20498;-68
2024/01/02 01:31:51;;;;;;;1.75;0.50;;;11.80;99.90;;;;;;5034855;28;20069;-68
2024/01/02 01:34:18;;;;;;;1.60;0.40;;;11.80;99.90;;;;;;5034605;28;20052;-67
2024/01/02 01:36:45;;;;;;;2.72;0.57;;;11.80;99.90;;;;;;5035940;28;20107;-68
2024/01/02 01:39:11;;;;;;;2.60;0.70;;;11.80;99.90;;;;;;5034821;28;20045;-67
2024/01/02 01:41:38;;;;;;;4.43;0.55;;;11.80;99.90;;;;;;5034502;28;20088;-67
2024/01/02 01:44:05;;;;;;;3.35;0.60;;;11.80;99.90;;;;;;5034075;28;20053;-68
2024/01/02 01:46:32;;;;;;;4.95;0.68;;;11.80;99.90;;;;;;5034624;28;20044;-68
2024/01/02 01:48:59;;;;;;;3.13;0.50;;;11.80;99.90;;;;;;5034635;28;20513;-68
2024/01/02 01:51:26;;;;;;;3.58;0.63;;;11.80;99.90;;;;;;5035875;28;20348;-68
2024/01/02 01:53:52;;;;;;;3.97;0.85;;;11.80;99.90;;;;;;5034497;28;20418;-68
2024/01/02 01:56:19;;;;;;;4.07;0.70;;;11.80;99.90;;;;;;5034320;28;20045;-67
2024/01/02 01:58:46;;;;;;;2.35;0.57;;;11.80;99.90;;;;;;5034497;28;20052;-67
2024/01/02 02:01:13;;;;;;;1.88;0.55;;;11.80;99.90;;;;;;5034030;28;20442;-67
2024/01/02 02:03:40;;;;;;;3.85;0.60;;;11.80;99.90;;;;;;5034113;28;20037;-67
2024/01/02 02:06:07;;;;;;;3.65;0.90;;;11.80;99.90;;;;;;5035294;28;20044;-67
2024/01/02 02:08:33;;;;;;;3.05;0.70;;;11.80;99.90;;;;;;5034307;28;20103;-68
2024/01/02 02:11:01;;;;;;;4.00;0.80;;;11.80;99.90;;;;;;5033957;28;20053;-67
2024/01/02 02:13:28;;;;;;;2.97;0.60;;;11.80;99.90;;;;;;5035049;28;20037;-67
2024/01/02 02:15:58;;;;;;;3.53;0.80;;;11.70;99.90;;;;;;5033771;28;20057;-67
2024/01/02 02:18:25;;;;;;;3.65;0.98;;;11.70;99.90;;;;;;5035206;28;20471;-67
2024/01/02 02:20:55;;;;;;;5.88;0.80;;;11.80;99.90;;;;;;5034139;28;20045;-68
2024/01/02 02:23:22;;;;;;;3.25;1.15;;;11.70;99.90;;;;;;5033891;28;20042;-67
2024/01/02 02:25:49;;;;;;;5.10;1.20;;;11.70;99.90;;;;;;5033733;28;20466;-68
2024/01/02 02:28:15;;;;;;;2.45;0.70;;;11.70;99.90;;;;;;5033370;28;20467;-67
2024/01/02 02:30:43;;;;;;;3.17;0.70;;;11.70;99.90;;;;;;5033857;28;20045;-68
2024/01/02 02:33:09;;;;;;;3.22;0.93;;;11.70;99.90;;;;;;5035171;28;20099;-67
2024/01/02 02:35:36;;;;;;;3.70;0.80;;;11.60;99.90;;;;;;5033356;28;20505;-67
2024/01/02 02:38:03;;;;;;;4.25;0.77;;;11.60;99.90;;;;;;5033784;28;20505;-67
2024/01/02 02:40:30;;;;;;;4.18;0.85;;;11.60;99.90;;;;;;5034907;28;20049;-67
2024/01/02 02:42:57;;;;;;;3.63;1.25;;;11.60;99.90;;;;;;5032909;28;20041;-68
2024/01/02 02:45:23;;;;;;;6.50;1.05;;;11.60;99.90;;;;;;5033199;28;20492;-67
2024/01/02 02:47:50;;;;;;;3.78;0.77;;;11.60;99.90;;;;;;5034648;28;20100;-68
2024/01/02 02:50:17;;;;;;;3.92;0.70;;;11.50;99.90;;;;;;5033222;28;20038;-67
2024/01/02 02:52:44;;;;;;;5.82;0.90;;;11.50;99.90;;;;;;5034757;28;20046;-67
2024/01/02 02:55:13;;;;;;;3.50;0.80;;;11.50;99.90;;;;;;5034505;28;20535;-67
2024/01/02 02:57:42;;;;;;;5.15;1.23;;;11.50;99.90;;;;;;5034518;28;20037;-67
2024/01/02 03:00:10;;;;;;;7.57;1.20;;;11.50;99.90;;;;;;5034331;28;20047;-67
2024/01/02 03:02:36;;;;;;;5.28;1.25;;;11.50;99.90;;;;;;5033176;28;20050;-67
2024/01/02 03:05:03;;;;;;;4.78;1.20;;;11.50;99.90;;;;;;5034321;28;20048;-67
2024/01/02 03:07:30;;;;;;;4.13;1.13;;;11.50;99.90;;;;;;5034317;28;20366;-67
2024/01/02 03:09:57;;;;;;;4.78;0.98;;;11.40;99.90;;;;;;5034108;28;20052;-67
2024/01/02 03:12:24;;;;;;;5.72;1.00;;;11.40;99.90;;;;;;5034244;28;20383;-67
2024/01/02 03:14:50;;;;;;;6.15;0.70;;;11.40;99.90;;;;;;5033635;28;20084;-67
2024/01/02 03:17:17;;;;;;;5.45;1.20;;;11.40;99.90;;;;;;5034337;28;20053;-67
2024/01/02 03:19:44;;;;;;;7.00;1.30;;;11.40;99.90;;;;;;5034175;28;20037;-67
2024/01/02 03:22:11;;;;;;;6.35;1.70;;;11.40;99.90;;;;;;5032577;28;20037;-67
2024/01/02 03:24:38;;;;;;;6.03;1.35;;;11.40;99.90;;;;;;5033805;28;20041;-67
2024/01/02 03:27:04;;;;;;;4.20;1.13;;;11.40;99.90;;;;;;5034084;28;20037;-67
2024/01/02 03:29:31;;;;;;;6.85;1.40;;;11.30;99.90;;;;;;5034039;28;20041;-67
2024/01/02 03:31:58;;;;;;;4.90;1.02;;;11.30;99.90;;;;;;5033784;28;20501;-67
2024/01/02 03:34:25;;;;;;;6.95;1.23;;;11.30;99.90;;;;;;5033695;28;20042;-67
2024/01/02 03:36:51;;;;;;;6.95;1.38;;;11.30;99.90;;;;;;5033891;28;20046;-67
2024/01/02 03:39:18;;;;;;;6.70;1.35;;;11.30;99.90;;;;;;5033881;28;20099;-67
2024/01/02 03:41:45;;;;;;;4.82;1.10;;;11.40;99.90;;;;;;5033955;28;20037;-67
2024/01/02 03:44:12;;;;;;;7.85;1.50;;;11.40;99.90;;;;;;5033286;28;20512;-67
2024/01/02 03:46:39;;;;;;;6.07;1.27;;;11.30;99.90;;;;;;5033541;28;20045;-67
2024/01/02 03:49:05;;;;;;;5.18;1.20;;;11.40;99.90;;;;;;5033283;28;20037;-67
2024/01/02 03:51:32;;;;;;;10.02;1.70;;;11.40;99.90;;;;;;5033270;28;20040;-67
2024/01/02 03:53:59;;;;;;;8.60;1.50;;;11.40;99.90;;;;;;5033777;28;20041;-67
2024/01/02 03:56:26;;;;;;;7.70;1.75;;;11.40;99.90;;;;;;5033435;28;20052;-67
2024/01/02 03:58:53;;;;;;;7.80;1.88;;;11.40;99.90;;;;;;5033240;28;20073;-68
2024/01/02 04:01:20;;;;;;;9.93;1.65;;;11.40;99.90;;;;;;5033797;28;20046;-68
2024/01/02 04:03:47;;;;;;;7.57;1.80;;;11.40;99.90;;;;;;5033138;28;20037;-67
2024/01/02 04:06:13;;;;;;;8.75;1.73;;;11.40;99.90;;;;;;5033389;28;20033;-67
2024/01/02 04:08:40;;;;;;;8.02;1.65;;;11.40;99.90;;;;;;5033547;28;20129;-68
2024/01/02 04:11:07;;;;;;;10.13;1.85;;;11.40;99.90;;;;;;5033693;28;20042;-68
2024/01/02 04:13:34;;;;;;;11.10;2.20;;;11.40;99.90;;;;;;5033113;28;20127;-67
2024/01/02 04:16:01;;;;;;;9.55;1.98;;;11.40;99.90;;;;;;5032954;28;20081;-67
2024/01/02 04:18:28;;;;;;;9.43;2.03;;;11.40;99.90;;;;;;5033102;28;20059;-68
2024/01/02 04:20:55;;;;;;;14.32;2.42;;;11.40;99.90;;;;;;5032932;28;20061;-67
2024/01/02 04:23:22;;;;;;;9.88;2.08;;;11.40;99.90;;;;;;5032856;28;20038;-67
2024/01/02 04:25:48;;;;;;;11.07;2.25;;;11.30;99.90;;;;;;5033147;28;20099;-67
2024/01/02 04:28:15;;;;;;;12.35;2.80;;;11.30;99.90;;;;;;5033646;28;20037;-67
2024/01/02 04:30:42;;;;;;;12.13;2.45;;;11.30;99.90;;;;;;5031928;28;20149;-67
2024/01/02 04:33:09;;;;;;;15.43;2.80;;;11.30;99.90;;;;;;5032959;28;20046;-67
2024/01/02 04:35:36;;;;;;;12.02;2.50;;;11.30;99.90;;;;;;5032872;28;20053;-67
2024/01/02 04:38:02;;;;;;;15.00;3.20;;;11.30;99.90;;;;;;5032826;28;20124;-67
2024/01/02 04:40:30;;;;;;;18.02;2.70;;;11.30;99.90;;;;;;5033240;28;20065;-68
2024/01/02 04:42:57;;;;;;;15.23;2.95;;;11.30;99.90;;;;;;5031332;28;20385;-67
2024/01/02 04:45:24;;;;;;;11.15;2.25;;;11.30;99.90;;;;;;5031675;28;20095;-67
2024/01/02 04:47:50;;;;;;;14.90;2.55;;;11.30;99.90;;;;;;5033269;28;20115;-67
2024/01/02 04:50:17;;;;;;;16.10;3.63;;;11.30;99.90;;;;;;5033035;28;20044;-67
2024/01/02 04:52:44;;;;;;;12.43;3.03;;;11.30;99.90;;;;;;5031631;28;20370;-67
2024/01/02 04:55:11;;;;;;;16.25;2.92;;;11.30;99.90;;;;;;5032730;28;20053;-67
2024/01/02 04:57:38;;;;;;;13.02;2.40;;;11.30;99.90;;;;;;5032705;28;20038;-67
2024/01/02 05:00:05;;;;;;;13.63;2.83;;;11.30;99.90;;;;;;5032918;28;20408;-67
2024/01/02 05:02:32;;;;;;;15.70;3.72;;;11.30;99.90;;;;;;5036120;28;20533;-67
2024/01/02 05:04:59;;;;;;;12.27;2.92;;;11.30;99.90;;;;;;5036149;28;20440;-67
2024/01/02 05:07:26;;;;;;;16.70;3.38;;;11.30;99.90;;;;;;5036596;28;20517;-67
2024/01/02 05:09:53;;;;;;;13.77;2.97;;;11.20;99.90;;;;;;5036246;28;20072;-67
2024/01/02 05:12:20;;;;;;;15.38;3.03;;;11.30;99.90;;;;;;5036705;28;20037;-67
2024/01/02 05:14:46;;;;;;;17.30;3.17;;;11.20;99.90;;;;;;5036043;28;20081;-67
2024/01/02 05:17:13;;;;;;;12.55;2.80;;;11.20;99.90;;;;;;5036187;28;20387;-67
2024/01/02 05:19:40;;;;;;;18.80;3.33;;;11.20;99.90;;;;;;5036432;28;20049;-67
2024/01/02 05:22:07;;;;;;;16.13;2.53;;;11.20;99.90;;;;;;5035323;28;20107;-67
2024/01/02 05:24:34;;;;;;;12.57;2.70;;;11.20;99.90;;;;;;5036269;28;20095;-67
2024/01/02 05:27:02;;;;;;;13.25;3.50;;;11.20;99.90;;;;;;5036295;28;20041;-67
2024/01/02 05:29:29;;;;;;;18.25;4.10;;;11.20;99.90;;;;;;5035893;28;20136;-67
2024/01/02 05:31:56;;;;;;;16.73;3.13;;;11.20;99.90;;;;;;5036144;28;20041;-67
2024/01/02 05:34:23;;;;;;;15.02;2.97;;;11.20;99.90;;;;;;5036245;28;20049;-68
2024/01/02 05:36:50;;;;;;;14.02;3.38;;;11.20;99.90;;;;;;5036128;28;20477;-68
2024/01/02 05:39:17;;;;;;;19.17;3.53;;;11.20;99.90;;;;;;5036203;28;20042;-67
2024/01/02 05:41:44;;;;;;;21.13;3.83;;;11.20;99.90;;;;;;5036154;28;20059;-68
2024/01/02 05:44:10;;;;;;;23.42;4.13;;;11.20;99.90;;;;;;5035798;28;20037;-60
2024/01/02 05:46:37;;;;;;;29.42;5.00;;;11.20;99.90;;;;;;5035818;28;20470;-60
2024/01/02 05:49:04;;;;;;;20.17;4.03;;;11.20;99.90;;;;;;5035561;28;20126;-61
2024/01/02 05:51:31;;;;;;;30.77;5.28;;;11.20;99.90;;;;;;5035688;28;20037;-60
2024/01/02 05:53:58;;;;;;;23.73;5.45;;;11.20;99.90;;;;;;5035298;28;20041;-62
2024/01/02 05:56:24;;;;;;;32.53;5.82;;;11.20;99.90;;;;;;5035704;28;20042;-60
2024/01/02 05:58:51;;;;;;;32.97;7.57;;;11.30;99.90;;;;;;5035857;28;20132;-63
2024/01/02 06:01:18;;;;;;;33.05;5.78;;;11.30;99.90;;;;;;5017951;28;20080;-62
2024/01/02 06:03:45;;;;;;;37.40;6.93;;;11.30;99.90;;;;;;5035259;28;20038;-61
2024/01/02 06:06:12;;;;;;;27.13;6.32;;;11.30;99.90;;;;;;5035043;28;20041;-61
2024/01/02 06:08:42;;;;;;;35.13;6.72;;;11.30;99.90;;;;;;5035349;28;20050;-61
2024/01/02 06:11:12;;;;;;;33.63;7.10;;;11.30;99.90;;;;;;5035433;28;20034;-61
2024/01/02 06:13:39;;;;;;;28.38;6.88;;;11.30;99.90;;;;;;5035292;28;20128;-61
2024/01/02 06:16:05;;;;;;;39.00;6.15;;;11.30;99.90;;;;;;5035204;28;20058;-60
2024/01/02 06:18:32;;;;;;;33.60;6.07;;;11.30;99.90;;;;;;5035145;28;20048;-60
2024/01/02 06:21:02;;;;;;;29.25;6.05;;;11.30;99.90;;;;;;5035312;28;20127;-61
2024/01/02 06:23:29;;;;;;;33.55;5.82;;;11.30;99.90;;;;;;5034985;28;20052;-61
2024/01/02 06:26:03;;;;;;;33.90;7.28;;;11.30;99.90;;;;;;5035254;28;20073;-61
2024/01/02 06:28:30;;;;;;;31.40;6.20;;;11.40;99.90;;;;;;5035560;28;20033;-62
2024/01/02 06:30:57;;;;;;;32.92;6.93;;;11.40;99.90;;;;;;5035074;28;20112;-62
2024/01/02 06:33:25;;;;;;;34.75;6.43;;;11.40;99.90;;;;;;5035128;28;20084;-61
2024/01/02 06:35:52;;;;;;;36.63;6.70;;;11.40;99.90;;;;;;5035824;28;20041;-61
2024/01/02 06:38:19;;;;;;;40.58;7.93;;;11.40;99.90;;;;;;5035131;28;20117;-72
2024/01/02 06:40:45;;;;;;;34.53;7.38;;;11.40;99.90;;;;;;5034965;28;20041;-72
2024/01/02 06:43:12;;;;;;;31.95;5.82;;;11.40;99.90;;;;;;5034664;28;20041;-68
2024/01/02 06:45:39;;;;;;;31.80;6.72;;;11.30;99.90;;;;;;5034685;28;20383;-68
2024/01/02 06:48:06;;;;;;;31.23;6.25;;;11.40;99.90;;;;;;5034845;28;20038;-68
2024/01/02 06:50:33;;;;;;;33.22;6.30;;;11.40;99.90;;;;;;5034268;28;20033;-68
2024/01/02 06:53:00;;;;;;;29.90;5.97;;;11.40;99.90;;;;;;5034485;28;20120;-68
2024/01/02 06:55:27;;;;;;;32.85;6.35;;;11.40;99.90;;;;;;5034321;28;20099;-68
2024/01/02 06:57:53;;;;;;;29.42;6.07;;;11.40;99.90;;;;;;5034408;28;20584;-68
2024/01/02 07:00:20;;;;;;;35.35;6.47;;;11.40;99.90;;;;;;5034193;28;20069;-67
2024/01/02 07:02:47;;;;;;;27.45;5.93;;;11.40;99.90;;;;;;5034259;28;20050;-67
2024/01/02 07:05:14;;;;;;;32.22;6.30;;;11.30;99.90;;;;;;5034161;28;20458;-71
2024/01/02 07:07:41;;;;;;;29.42;7.22;;;11.40;99.90;;;;;;5034163;28;20124;-72
2024/01/02 07:10:08;;;;;;;28.73;5.70;;;11.40;99.90;;;;;;5034178;28;20551;-71
2024/01/02 07:12:35;;;;;;;32.63;5.78;;;11.40;99.90;;;;;;5034386;28;20044;-71
2024/01/02 07:15:05;;;;;;;28.92;5.47;;;11.40;99.90;;;;;;5033777;28;20057;-71
2024/01/02 07:17:32;;;;;;;30.90;5.72;;;11.40;99.90;;;;;;5033995;28;20069;-62
2024/01/02 07:19:59;;;;;;;25.38;5.32;;;11.40;99.90;;;;;;5033719;28;20487;-61
2024/01/02 07:22:27;;;;;;;24.38;5.15;;;11.40;99.90;;;;;;5032474;28;20445;-62
2024/01/02 07:24:53;;;;;;;30.38;5.65;;;11.40;99.90;;;;;;5032994;28;20370;-61
2024/01/02 07:27:20;;;;;;;28.42;4.90;;;11.40;99.90;;;;;;5033744;28;20033;-62
2024/01/02 07:29:47;;;;;;;28.73;5.93;;;11.40;99.90;;;;;;5033513;28;20041;-62
2024/01/02 07:32:14;;;;;;;25.65;5.82;;;11.40;99.90;;;;;;5032316;28;20050;-62
2024/01/02 07:34:40;;;;;;;30.13;5.05;;;11.40;99.90;;;;;;5033559;28;20414;-60
2024/01/02 07:37:08;;;;;;;24.52;5.63;;;11.40;99.90;;;;;;5032021;28;20348;-60
2024/01/02 07:39:35;;;;;;;22.30;5.22;;;11.40;99.90;;;;;;5033462;28;20037;-60
2024/01/02 07:42:02;;;;;;;22.48;4.68;;;11.40;99.90;;;;;;5033496;28;20403;-60
2024/01/02 07:44:28;;;;;;;26.80;4.85;;;11.40;99.90;;;;;;5033172;28;20041;-60
2024/01/02 07:46:55;;;;;;;24.83;4.85;;;11.40;99.90;;;;;;5033752;28;20046;-60
2024/01/02 07:49:22;;;;;;;23.83;4.32;;;11.30;99.90;;;;;;5033557;28;20047;-60
2024/01/02 07:51:51;;;;;;;28.65;5.18;;;11.30;99.90;;;;;;5033648;28;20368;-72
2024/01/02 07:54:18;;;;;;;19.05;4.35;;;11.30;99.90;;;;;;5033005;28;20078;-62
2024/01/02 07:56:45;;;;;;;19.77;3.65;;;11.30;99.90;;;;;;5032965;28;20048;-62
2024/01/02 07:59:15;;;;;;;15.68;4.07;;;11.30;99.90;;;;;;5032308;28;20047;-62
2024/01/02 08:01:42;;;;;;;20.10;3.90;;;11.30;99.90;;;;;;5033347;28;20049;-62
2024/01/02 08:04:08;;;;;;;22.50;4.47;;;11.30;99.90;;;;;;5033073;28;20371;-62
2024/01/02 08:06:35;;;;;;;20.63;4.10;;;11.30;99.90;;;;;;5032150;28;20041;-62
2024/01/02 08:09:02;;;;;;;22.85;4.20;;;11.30;99.90;;;;;;5033356;28;20065;-62
2024/01/02 08:11:29;;;;;;;14.90;3.88;;;11.20;99.90;;;;;;5033322;28;20069;-62
2024/01/02 08:13:56;;;;;;;20.17;3.17;;;11.20;99.90;;;;;;5033119;28;20065;-62
2024/01/02 08:16:23;;;;;;;14.88;3.63;;;11.20;99.90;;;;;;5033608;28;20079;-62
2024/01/02 08:18:50;;;;;;;13.30;3.75;;;11.30;99.90;;;;;;5033269;28;20382;-62
2024/01/02 08:21:17;;;;;;;14.05;3.30;;;11.20;99.90;;;;;;5032875;28;20482;-70
2024/01/02 08:23:44;;;;;;;14.40;3.30;;;11.20;99.90;;;;;;5032973;28;20486;-71
2024/01/02 08:26:10;;;;;;;11.38;2.17;;;11.30;99.90;;;;;;5031781;28;20045;-71
2024/01/02 08:28:38;;;;;;;14.18;2.40;;;11.20;99.90;;;;;;5031279;28;20622;-71
2024/01/02 08:31:05;;;;;;;10.05;2.35;;;11.20;99.90;;;;;;5031560;28;20041;-71
2024/01/02 08:33:31;;;;;;;10.75;2.25;;;11.20;99.90;;;;;;5018007;28;20033;-68
2024/01/02 08:35:58;;;;;;;8.75;2.17;;;11.20;99.90;;;;;;5031340;28;20079;-68
2024/01/02 08:38:25;;;;;;;6.32;1.73;;;11.20;99.90;;;;;;5035737;28;20103;-68
2024/01/02 08:40:52;;;;;;;10.75;2.10;;;11.20;99.90;;;;;;5035847;28;20390;-68
2024/01/02 08:43:19;;;;;;;11.68;2.75;;;11.20;99.90;;;;;;5035817;28;20041;-68
2024/01/02 08:45:46;;;;;;;9.10;1.92;;;11.20;99.90;;;;;;5028805;28;20064;-68
2024/01/02 08:48:14;;;;;;;8.68;1.80;;;11.20;99.90;;;;;;5029341;28;20042;-68
2024/01/02 08:50:42;;;;;;;7.90;1.77;;;11.20;99.90;;;;;;5027079;28;20042;-68
2024/01/02 08:53:09;;;;;;;8.20;1.80;;;11.20;99.90;;;;;;5020006;28;20129;-68
2024/01/02 08:55:36;;;;;;;10.30;1.88;;;11.30;99.90;;;;;;5022810;28;20124;-68
2024/01/02 08:58:03;;;;;;;4.10;1.30;;;11.30;99.90;;;;;;5015898;28;20050;-68
2024/01/02 09:00:30;;;;;;;8.68;1.88;;;11.30;99.90;;;;;;5025981;28;20052;-68
2024/01/02 09:02:57;;;;;;;6.85;1.52;;;11.30;99.90;;;;;;5019649;28;20060;-67
2024/01/02 09:05:26;;;;;;;6.22;1.20;;;11.30;99.90;;;;;;5023475;28;20041;-65
2024/01/02 09:07:53;;;;;;;4.63;1.33;;;11.30;99.90;;;;;;5016281;28;20061;-68
2024/01/02 09:10:19;;;;;;;4.35;1.15;;;11.30;99.90;;;;;;5018931;28;20033;-67
2024/01/02 09:12:46;;;;;;;7.35;1.10;;;11.30;99.90;;;;;;5019229;28;20053;-67
2024/01/02 09:15:13;;;;;;;3.97;0.98;;;11.30;99.90;;;;;;5016174;28;20396;-67
2024/01/02 09:17:40;;;;;;;3.63;1.23;;;11.30;99.90;;;;;;5016232;28;20495;-68
2024/01/02 09:20:08;;;;;;;5.15;1.50;;;11.30;99.90;;;;;;5020681;28;20045;-68
2024/01/02 09:22:34;;;;;;;4.88;1.27;;;11.30;99.90;;;;;;5025443;28;20061;-67
2024/01/02 09:25:01;;;;;;;2.05;0.75;;;11.30;99.90;;;;;;5023796;28;20080;-67
2024/01/02 09:27:28;;;;;;;3.67;1.75;;;11.30;99.90;;;;;;5014732;28;20225;-68
2024/01/02 09:29:55;;;;;;;4.22;1.00;;;11.30;99.90;;;;;;5019710;28;20439;-67
2024/01/02 09:32:22;;;;;;;2.60;0.77;;;11.30;99.90;;;;;;5031123;28;20479;-67
2024/01/02 09:34:49;;;;;;;4.15;1.50;;;11.30;99.90;;;;;;5029227;28;20045;-69
2024/01/02 09:37:16;;;;;;;2.55;0.80;;;11.30;99.90;;;;;;5015955;28;20042;-69
2024/01/02 09:39:43;;;;;;;3.67;0.30;;;11.30;99.90;;;;;;5014506;28;20037;-69
2024/01/02 09:42:10;;;;;;;2.15;0.55;;;11.30;99.90;;;;;;5029859;28;20041;-61
2024/01/02 09:44:37;;;;;;;1.20;0.30;;;11.30;99.90;;;;;;5034929;28;20040;-60
2024/01/02 09:47:04;;;;;;;1.63;0.30;;;11.40;99.90;;;;;;5025879;28;20473;-69
2024/01/02 09:49:30;;;;;;;1.83;0.40;;;11.40;99.90;;;;;;5015206;28;20046;-67
2024/01/02 09:51:57;;;;;;;1.02;0.28;;;11.50;99.90;;;;;;5018065;28;20041;-69
2024/01/02 09:54:24;;;;;;;0.35;0.20;;;11.50;99.90;;;;;;5015294;28;20077;-70
2024/01/02 09:56:51;;;;;;;1.00;0.30;;;11.60;99.90;;;;;;5017220;28;20056;-69
2024/01/02 09:59:21;;;;;;;0.75;0.22;;;11.70;99.90;;;;;;5015644;28;20068;-70
2024/01/02 10:01:48;;;;;;;1.80;0.30;;;11.70;99.90;;;;;;5023680;28;20048;-70
2024/01/02 10:04:15;;;;;;;3.88;0.60;;;11.80;99.90;;;;;;5013935;28;20041;-71
2024/01/02 10:06:42;;;;;;;1.67;0.35;;;11.90;99.90;;;;;;5014980;28;20042;-70
2024/01/02 10:09:10;;;;;;;1.40;0.30;;;11.90;99.90;;;;;;5015381;28;20049;-70
2024/01/02 10:11:37;;;;;;;1.13;0.22;;;11.90;99.90;;;;;;5016452;28;20088;-71
2024/01/02 10:14:04;;;;;;;0.98;0.25;;;12.00;99.90;;;;;;5018971;28;20041;-70
2024/01/02 10:16:31;;;;;;;4.07;0.47;;;12.00;99.90;;;;;;5014897;28;20045;-72
2024/01/02 10:19:00;;;;;;;3.17;0.52;;;12.10;99.90;;;;;;5028054;28;20078;-68
2024/01/02 10:21:28;;;;;;;2.30;0.68;;;12.10;99.90;;;;;;5034070;28;20076;-69
2024/01/02 10:23:55;;;;;;;2.75;0.60;;;12.10;99.90;;;;;;5014722;28;20042;-70
2024/01/02 10:26:22;;;;;;;3.08;0.75;;;12.20;99.90;;;;;;5013782;28;20030;-61
2024/01/02 10:28:48;;;;;;;6.80;1.30;;;12.20;99.90;;;;;;5017342;28;20491;-62
2024/01/02 10:31:15;;;;;;;3.28;0.60;;;12.20;99.90;;;;;;5020494;28;20055;-68
2024/01/02 10:33:42;;;;;;;4.47;0.70;;;12.20;99.90;;;;;;5016641;28;20045;-68
2024/01/02 10:36:09;;;;;;;3.50;0.90;;;12.20;99.90;;;;;;5014420;28;20042;-67
2024/01/02 10:38:36;;;;;;;2.42;0.80;;;12.30;99.90;;;;;;5015491;28;20050;-68
2024/01/02 10:41:03;;;;;;;6.18;1.13;;;12.30;99.90;;;;;;5014591;28;20084;-68
2024/01/02 10:43:31;;;;;;;8.50;1.83;;;12.30;99.90;;;;;;5028496;28;20514;-68
2024/01/02 10:45:57;;;;;;;9.57;1.48;;;12.40;99.90;;;;;;5033219;28;20045;-68
2024/01/02 10:48:24;;;;;;;9.07;2.17;;;12.40;99.90;;;;;;5019841;28;20383;-68
2024/01/02 10:50:51;;;;;;;10.38;2.20;;;12.30;99.90;;;;;;5014505;28;20120;-68
2024/01/02 10:53:18;;;;;;;11.43;2.20;;;12.40;99.90;;;;;;5018767;28;20046;-69
2024/01/02 10:55:45;;;;;;;13.75;2.47;;;12.30;99.90;;;;;;5014376;28;20125;-69
2024/01/02 10:58:12;;;;;;;12.52;3.00;;;12.30;99.90;;;;;;5017446;28;20045;-68
2024/01/02 11:00:38;;;;;;;15.52;3.30;;;12.30;99.90;;;;;;5015721;28;20483;-68
2024/01/02 11:03:06;;;;;;;17.95;3.00;;;12.30;99.90;;;;;;5025476;28;20112;-68
2024/01/02 11:05:33;;;;;;;17.17;3.50;;;12.20;99.90;;;;;;5014003;28;20046;-69
2024/01/02 11:08:01;;;;;;;15.85;2.83;;;12.20;99.90;;;;;;5015787;28;20041;-68
2024/01/02 11:10:28;;;;;;;15.98;3.10;;;12.20;99.90;;;;;;5013909;28;20045;-68
2024/01/02 11:12:54;;;;;;;10.98;2.75;;;12.20;99.90;;;;;;5014713;28;20489;-68
2024/01/02 11:15:30;;;;;;;;;;;12.20;99.90;;;;;;5014233;28;20058;-69
2024/01/02 11:17:57;;;;;;;15.50;2.97;;;12.20;99.90;;;;;;5020464;28;19983;-69
2024/01/02 11:20:24;;;;;;;15.70;2.85;;;12.20;99.90;;;;;;5013801;28;20379;-68
2024/01/02 11:22:51;;;;;;;10.82;2.13;;;12.20;99.90;;;;;;5013727;28;20049;-67
2024/01/02 11:25:19;;;;;;;10.25;1.80;;;12.20;99.90;;;;;;5013767;28;20037;-68
2024/01/02 11:28:02;;;;;;;8.52;2.08;;;12.20;99.90;;;;;;5013365;28;20457;-68
2024/01/02 11:30:29;;;;;;;9.90;2.40;;;12.10;99.90;;;;;;5014783;28;20038;-71
2024/01/02 11:32:56;;;;;;;8.07;1.65;;;12.10;99.90;;;;;;5024674;28;20049;-71
2024/01/02 11:35:24;;;;;;;9.43;1.88;;;12.10;99.90;;;;;;5012381;28;20037;-71
2024/01/02 11:37:51;;;;;;;9.55;1.52;;;12.10;99.90;;;;;;5016188;28;20419;-71
2024/01/02 11:40:18;;;;;;;6.10;1.30;;;12.10;99.90;;;;;;5014792;28;20038;-71
2024/01/02 11:42:45;;;;;;;2.72;1.02;;;12.00;99.90;;;;;;5023992;28;20076;-61
2024/01/02 11:45:11;;;;;;;4.03;0.98;;;12.00;99.90;;;;;;5013348;28;20037;-61
2024/01/02 11:47:39;;;;;;;6.55;1.02;;;12.00;99.90;;;;;;5013877;28;20097;-53
2024/01/02 11:50:06;;;;;;;5.72;0.95;;;12.00;99.90;;;;;;5013208;28;20104;-60
2024/01/02 11:52:33;;;;;;;4.45;0.73;;;12.10;99.90;;;;;;5013382;28;20046;-61
2024/01/02 11:55:00;;;;;;;2.78;0.60;;;12.00;99.90;;;;;;5011974;28;20129;-60
2024/01/02 11:57:27;;;;;;;2.17;0.60;;;12.00;99.90;;;;;;5013578;28;20042;-60
2024/01/02 11:59:54;;;;;;;2.17;0.50;;;12.00;99.90;;;;;;5012614;28;20482;-60
2024/01/02 12:02:21;;;;;;;3.55;0.70;;;12.00;99.90;;;;;;5027998;28;20041;-61
2024/01/02 12:04:48;;;;;;;2.65;0.60;;;12.00;99.90;;;;;;5032400;28;20065;-61
2024/01/02 12:07:15;;;;;;;2.63;0.60;;;12.00;99.90;;;;;;5031259;28;20070;-60
2024/01/02 12:09:42;;;;;;;2.05;0.60;;;12.00;99.90;;;;;;5032897;28;20038;-67
2024/01/02 12:12:09;;;;;;;0.65;0.30;;;11.90;99.90;;;;;;5032685;28;20471;-67
2024/01/02 12:14:36;;;;;;;4.80;0.40;;;11.90;99.90;;;;;;5032366;28;20041;-61
2024/01/02 12:17:02;;;;;;;1.05;0.45;;;12.00;99.90;;;;;;5032527;28;20383;-69
2024/01/02 12:19:49;;;;;;;1.13;0.30;;;12.00;99.90;;;;;;5032369;28;20060;-66
2024/01/02 12:22:16;;;;;;;0.98;0.25;;;12.00;99.90;;;;;;5032571;28;20037;-66
2024/01/02 12:24:43;;;;;;;1.38;0.30;;;12.00;99.90;;;;;;5032534;28;20041;-67
2024/01/02 12:27:10;;;;;;;1.65;0.40;;;12.00;99.90;;;;;;5032245;28;20038;-67
2024/01/02 12:29:37;;;;;;;3.80;0.40;;;12.10;99.90;;;;;;5032470;28;20366;-67
2024/01/02 12:32:04;;;;;;;1.13;0.40;;;12.10;99.90;;;;;;5021858;28;20117;-65
2024/01/02 12:34:31;;;;;;;1.02;0.20;;;12.10;99.90;;;;;;5012206;28;20038;-67
2024/01/02 12:36:58;;;;;;;1.30;0.30;;;12.10;99.90;;;;;;5012427;28;20100;-67
2024/01/02 12:39:25;;;;;;;1.98;0.52;;;12.20;99.90;;;;;;5022889;28;20100;-66
2024/01/02 12:41:53;;;;;;;1.92;0.30;;;12.20;99.90;;;;;;5013141;28;20042;-67